createdAt,value
2023-04-09T00:00:11.110Z,22.50
2023-04-09T00:01:11.108Z,20.70
2023-04-09T00:02:11.152Z,20.80
2023-04-09T00:03:12.183Z,21.40
2023-04-09T00:04:11.135Z,20.60
2023-04-09T00:05:11.069Z,19.80
2023-04-09T00:06:11.056Z,20.90
2023-04-09T00:07:11.066Z,22.00
2023-04-09T00:08:11.060Z,21.60
2023-04-09T00:09:11.017Z,20.60
2023-04-09T00:10:10.992Z,20.80
2023-04-09T00:11:11.005Z,21.20
2023-04-09T00:12:10.991Z,19.90
2023-04-09T00:13:11.030Z,21.60
2023-04-09T00:14:10.996Z,20.60
2023-04-09T00:15:15.070Z,20.90
2023-04-09T00:16:12.979Z,19.80
2023-04-09T00:17:11.920Z,19.00
2023-04-09T00:18:10.925Z,20.70
2023-04-09T00:19:10.944Z,19.20
2023-04-09T00:20:10.917Z,20.70
2023-04-09T00:21:10.916Z,21.40
2023-04-09T00:22:10.952Z,22.00
2023-04-09T00:23:12.502Z,18.30
2023-04-09T00:24:10.884Z,18.50
2023-04-09T00:25:10.903Z,19.70
2023-04-09T00:26:10.855Z,18.20
2023-04-09T00:27:10.879Z,20.70
2023-04-09T00:28:10.841Z,20.10
2023-04-09T00:29:10.860Z,20.20
2023-04-09T00:30:10.809Z,20.30
2023-04-09T00:31:10.892Z,20.00
2023-04-09T00:32:10.802Z,20.80
2023-04-09T00:33:10.795Z,21.30
2023-04-09T00:34:10.774Z,19.30
2023-04-09T00:35:10.869Z,19.30
2023-04-09T00:36:10.780Z,18.20
2023-04-09T00:37:10.790Z,20.80
2023-04-09T00:38:10.722Z,20.30
2023-04-09T00:39:10.757Z,20.20
2023-04-09T00:40:10.719Z,21.10
2023-04-09T00:41:10.700Z,20.00
2023-04-09T00:42:10.696Z,21.60
2023-04-09T00:43:10.688Z,20.30
2023-04-09T00:44:10.688Z,20.10
2023-04-09T00:45:10.695Z,20.90
2023-04-09T00:46:10.733Z,19.10
2023-04-09T00:47:10.671Z,20.10
2023-04-09T00:48:10.636Z,19.70
2023-04-09T00:49:10.634Z,18.80
2023-04-09T00:50:10.637Z,18.90
2023-04-09T00:51:10.632Z,20.00
2023-04-09T00:52:10.666Z,19.50
2023-04-09T00:53:10.637Z,23.30
2023-04-09T00:54:10.590Z,19.30
2023-04-09T00:55:10.606Z,19.90
2023-04-09T00:56:10.593Z,21.60
2023-04-09T00:57:10.544Z,20.20
2023-04-09T00:58:10.586Z,20.90
2023-04-09T00:59:10.563Z,19.90
2023-04-09T01:00:10.547Z,20.00
2023-04-09T01:01:10.577Z,20.10
2023-04-09T01:02:10.680Z,19.30
2023-04-09T01:03:10.608Z,21.50
2023-04-09T01:04:10.519Z,19.60
2023-04-09T01:05:10.480Z,18.70
2023-04-09T01:06:10.496Z,19.90
2023-04-09T01:07:10.487Z,18.90
2023-04-09T01:08:10.447Z,19.70
2023-04-09T01:09:10.532Z,18.80
2023-04-09T01:10:10.448Z,21.00
2023-04-09T01:11:10.442Z,21.50
2023-04-09T01:12:10.426Z,21.30
2023-04-09T01:13:10.412Z,19.80
2023-04-09T01:14:10.442Z,19.70
2023-04-09T01:15:10.470Z,18.60
2023-04-09T01:16:10.415Z,19.60
2023-04-09T01:17:10.416Z,19.10
2023-04-09T01:18:10.338Z,20.30
2023-04-09T01:19:10.333Z,19.50
2023-04-09T01:20:10.346Z,19.40
2023-04-09T01:21:10.329Z,20.90
2023-04-09T01:22:10.320Z,18.20
2023-04-09T01:23:10.318Z,20.70
2023-04-09T01:24:10.310Z,19.10
2023-04-09T01:25:10.316Z,20.10
2023-04-09T01:26:10.300Z,20.20
2023-04-09T01:27:10.264Z,19.10
2023-04-09T01:28:10.272Z,19.90
2023-04-09T01:29:10.238Z,18.90
2023-04-09T01:30:10.295Z,19.40
2023-04-09T01:31:10.279Z,18.90
2023-04-09T01:32:10.242Z,19.40
2023-04-09T01:33:10.212Z,19.80
2023-04-09T01:34:10.216Z,19.00
2023-04-09T01:35:10.208Z,19.80
2023-04-09T01:36:10.240Z,22.40
2023-04-09T01:37:10.159Z,20.60
2023-04-09T01:38:10.170Z,19.60
2023-04-09T01:39:10.153Z,18.90
2023-04-09T01:40:10.182Z,20.20
2023-04-09T01:41:10.138Z,19.40
2023-04-09T01:42:10.127Z,19.80
2023-04-09T01:43:10.180Z,19.10
2023-04-09T01:44:10.127Z,17.50
2023-04-09T01:45:10.108Z,17.90
2023-04-09T01:46:10.103Z,19.00
2023-04-09T01:47:10.117Z,19.20
2023-04-09T01:48:10.071Z,18.20
2023-04-09T01:49:10.101Z,18.30
2023-04-09T01:50:10.042Z,18.60
2023-04-09T01:51:10.056Z,17.50
2023-04-09T01:52:10.074Z,19.70
2023-04-09T01:53:10.079Z,18.00
2023-04-09T01:54:10.034Z,19.70
2023-04-09T01:55:11.013Z,21.10
2023-04-09T01:56:09.973Z,19.20
2023-04-09T01:57:10.000Z,18.90
2023-04-09T01:58:09.999Z,19.20
2023-04-09T01:59:09.968Z,18.70
2023-04-09T02:00:09.979Z,22.40
2023-04-09T02:01:09.977Z,20.30
2023-04-09T02:02:10.084Z,20.20
2023-04-09T02:03:10.996Z,19.10
2023-04-09T02:04:09.937Z,20.20
2023-04-09T02:05:09.920Z,19.50
2023-04-09T02:06:09.892Z,18.90
2023-04-09T02:07:09.912Z,21.20
2023-04-09T02:08:09.918Z,20.60
2023-04-09T02:09:09.869Z,19.40
2023-04-09T02:10:09.874Z,18.90
2023-04-09T02:11:09.873Z,19.20
2023-04-09T02:12:09.827Z,19.80
2023-04-09T02:13:09.845Z,22.80
2023-04-09T02:14:09.830Z,20.80
2023-04-09T02:15:09.883Z,21.80
2023-04-09T02:16:09.844Z,23.50
2023-04-09T02:17:09.835Z,21.30
2023-04-09T02:18:09.771Z,21.60
2023-04-09T02:19:09.779Z,20.90
2023-04-09T02:20:09.742Z,20.70
2023-04-09T02:21:09.759Z,20.60
2023-04-09T02:22:09.784Z,22.70
2023-04-09T02:23:09.739Z,24.40
2023-04-09T02:24:09.729Z,24.10
2023-04-09T02:25:09.732Z,25.90
2023-04-09T02:26:09.729Z,23.40
2023-04-09T02:27:09.701Z,25.50
2023-04-09T02:28:36.117Z,24.30
2023-04-09T02:29:09.675Z,25.60
2023-04-09T02:30:09.693Z,24.60
2023-04-09T02:31:09.715Z,24.30
2023-04-09T02:32:09.668Z,24.40
2023-04-09T02:33:09.658Z,22.80
2023-04-09T02:34:09.628Z,24.50
2023-04-09T02:35:09.624Z,25.70
2023-04-09T02:36:09.688Z,23.80
2023-04-09T02:37:09.588Z,24.40
2023-04-09T02:38:09.627Z,23.70
2023-04-09T02:39:09.567Z,24.10
2023-04-09T02:40:09.616Z,23.40
2023-04-09T02:41:09.653Z,22.00
2023-04-09T02:42:09.564Z,24.30
2023-04-09T02:43:09.539Z,24.60
2023-04-09T02:44:09.549Z,25.10
2023-04-09T02:45:09.534Z,22.30
2023-04-09T02:46:09.506Z,22.00
2023-04-09T02:47:09.492Z,23.10
2023-04-09T02:48:09.493Z,21.20
2023-04-09T02:49:09.578Z,24.10
2023-04-09T02:50:09.458Z,24.00
2023-04-09T02:51:09.463Z,22.30
2023-04-09T02:52:09.474Z,23.50
2023-04-09T02:53:09.464Z,23.00
2023-04-09T02:54:09.451Z,21.60
2023-04-09T02:55:09.438Z,25.10
2023-04-09T02:56:09.406Z,21.10
2023-04-09T02:57:09.454Z,25.30
2023-04-09T02:58:09.386Z,23.20
2023-04-09T02:59:09.385Z,23.90
2023-04-09T03:00:09.370Z,22.60
2023-04-09T03:01:09.441Z,24.80
2023-04-09T03:02:09.448Z,22.60
2023-04-09T03:03:09.544Z,23.40
2023-04-09T03:04:09.364Z,21.30
2023-04-09T03:05:09.329Z,21.90
2023-04-09T03:06:09.322Z,23.70
2023-04-09T03:07:09.371Z,20.30
2023-04-09T03:08:09.326Z,23.70
2023-04-09T03:09:09.292Z,23.00
2023-04-09T03:10:09.266Z,24.20
2023-04-09T03:11:09.268Z,25.00
2023-04-09T03:12:09.281Z,22.70
2023-04-09T03:13:09.297Z,23.00
2023-04-09T03:14:09.272Z,23.40
2023-04-09T03:15:09.232Z,21.10
2023-04-09T03:16:09.270Z,23.60
2023-04-09T03:17:09.222Z,22.10
2023-04-09T03:18:09.213Z,23.20
2023-04-09T03:19:09.190Z,25.10
2023-04-09T03:20:09.222Z,23.00
2023-04-09T03:21:09.186Z,24.30
2023-04-09T03:22:09.196Z,26.80
2023-04-09T03:23:09.188Z,23.40
2023-04-09T03:24:09.178Z,24.20
2023-04-09T03:25:09.142Z,23.10
2023-04-09T03:26:09.130Z,23.10
2023-04-09T03:27:09.138Z,23.30
2023-04-09T03:28:09.099Z,24.20
2023-04-09T03:29:09.137Z,24.80
2023-04-09T03:30:09.074Z,23.00
2023-04-09T03:31:09.107Z,23.40
2023-04-09T03:32:09.072Z,24.30
2023-04-09T03:33:09.043Z,25.70
2023-04-09T03:34:09.068Z,24.40
2023-04-09T03:35:09.029Z,25.70
2023-04-09T03:36:09.134Z,24.60
2023-04-09T03:37:09.023Z,26.00
2023-04-09T03:38:09.023Z,23.80
2023-04-09T03:39:09.021Z,24.00
2023-04-09T03:40:08.969Z,25.90
2023-04-09T03:41:08.989Z,24.20
2023-04-09T03:42:08.999Z,26.00
2023-04-09T03:43:08.953Z,24.20
2023-04-09T03:44:09.003Z,24.90
2023-04-09T03:45:08.949Z,24.90
2023-04-09T03:46:08.983Z,24.60
2023-04-09T03:47:08.959Z,25.10
2023-04-09T03:48:08.966Z,24.60
2023-04-09T03:49:08.894Z,25.40
2023-04-09T03:50:08.921Z,23.50
2023-04-09T03:51:09.920Z,24.80
2023-04-09T03:52:08.920Z,25.00
2023-04-09T03:53:08.890Z,24.10
2023-04-09T03:54:08.871Z,25.50
2023-04-09T03:55:08.864Z,24.60
2023-04-09T03:56:08.831Z,25.30
2023-04-09T03:57:08.831Z,24.60
2023-04-09T03:58:08.792Z,22.70
2023-04-09T03:59:08.873Z,24.80
2023-04-09T04:00:08.796Z,25.80
2023-04-09T04:01:08.793Z,26.20
2023-04-09T04:02:08.856Z,26.00
2023-04-09T04:03:08.880Z,24.00
2023-04-09T04:04:08.868Z,26.90
2023-04-09T04:05:08.780Z,24.80
2023-04-09T04:06:08.734Z,22.60
2023-04-09T04:07:08.756Z,24.80
2023-04-09T04:08:08.706Z,25.00
2023-04-09T04:09:08.735Z,25.00
2023-04-09T04:10:08.690Z,24.90
2023-04-09T04:11:08.740Z,26.80
2023-04-09T04:12:08.707Z,25.20
2023-04-09T04:13:08.765Z,24.30
2023-04-09T04:14:08.648Z,23.90
2023-04-09T04:15:08.671Z,25.70
2023-04-09T04:16:08.675Z,25.50
2023-04-09T04:17:08.670Z,25.60
2023-04-09T04:18:08.648Z,26.90
2023-04-09T04:19:08.606Z,25.00
2023-04-09T04:20:08.606Z,27.30
2023-04-09T04:21:08.618Z,26.60
2023-04-09T04:22:08.611Z,27.50
2023-04-09T04:23:08.575Z,26.00
2023-04-09T04:24:08.580Z,25.20
2023-04-09T04:25:08.580Z,26.80
2023-04-09T04:26:08.526Z,28.10
2023-04-09T04:27:08.554Z,26.50
2023-04-09T04:28:08.499Z,25.10
2023-04-09T04:29:08.504Z,28.30
2023-04-09T04:30:08.536Z,27.20
2023-04-09T04:31:08.484Z,25.70
2023-04-09T04:32:08.497Z,29.70
2023-04-09T04:33:09.466Z,26.50
2023-04-09T04:34:08.477Z,27.80
2023-04-09T04:35:08.516Z,27.80
2023-04-09T04:36:08.431Z,28.30
2023-04-09T04:37:08.416Z,28.10
2023-04-09T04:38:08.415Z,27.40
2023-04-09T04:39:08.423Z,28.40
2023-04-09T04:40:08.440Z,27.90
2023-04-09T04:41:08.445Z,28.30
2023-04-09T04:42:08.370Z,28.60
2023-04-09T04:43:08.371Z,29.80
2023-04-09T04:44:08.408Z,26.50
2023-04-09T04:45:08.369Z,28.10
2023-04-09T04:46:08.396Z,26.50
2023-04-09T04:47:08.373Z,28.40
2023-04-09T04:48:08.350Z,27.70
2023-04-09T04:49:08.333Z,27.90
2023-04-09T04:50:08.338Z,28.60
2023-04-09T04:51:08.294Z,27.90
2023-04-09T04:52:08.282Z,27.00
2023-04-09T04:53:08.292Z,27.00
2023-04-09T04:54:08.288Z,29.10
2023-04-09T04:55:08.291Z,29.20
2023-04-09T04:56:08.285Z,27.60
2023-04-09T04:57:08.224Z,28.90
2023-04-09T04:58:08.207Z,27.80
2023-04-09T04:59:08.244Z,29.30
2023-04-09T05:00:08.212Z,28.60
2023-04-09T05:01:08.350Z,29.20
2023-04-09T05:02:08.257Z,27.30
2023-04-09T05:03:08.239Z,30.70
2023-04-09T05:04:08.201Z,28.90
2023-04-09T05:05:08.159Z,28.90
2023-04-09T05:06:08.160Z,29.10
2023-04-09T05:07:08.141Z,29.80
2023-04-09T05:08:08.149Z,29.20
2023-04-09T05:09:08.148Z,28.60
2023-04-09T05:10:08.099Z,29.00
2023-04-09T05:11:08.108Z,28.60
2023-04-09T05:12:08.092Z,28.90
2023-04-09T05:13:08.119Z,28.50
2023-04-09T05:14:08.118Z,28.10
2023-04-09T05:15:08.082Z,28.10
2023-04-09T05:16:08.076Z,29.10
2023-04-09T05:17:08.043Z,29.50
2023-04-09T05:18:08.096Z,28.50
2023-04-09T05:19:08.023Z,28.30
2023-04-09T05:20:08.018Z,31.70
2023-04-09T05:21:08.030Z,31.10
2023-04-09T05:22:08.044Z,29.80
2023-04-09T05:23:07.991Z,30.00
2023-04-09T05:24:07.988Z,27.60
2023-04-09T05:25:07.968Z,31.30
2023-04-09T05:26:07.956Z,29.70
2023-04-09T05:27:07.949Z,30.60
2023-04-09T05:28:07.972Z,30.10
2023-04-09T05:29:08.963Z,31.50
2023-04-09T05:30:07.935Z,26.90
2023-04-09T05:31:07.946Z,30.80
2023-04-09T05:32:07.915Z,28.90
2023-04-09T05:33:07.918Z,28.80
2023-04-09T05:34:07.897Z,30.60
2023-04-09T05:35:07.910Z,27.20
2023-04-09T05:36:07.914Z,30.90
2023-04-09T05:37:07.934Z,31.30
2023-04-09T05:38:07.861Z,31.20
2023-04-09T05:39:07.810Z,29.40
2023-04-09T05:40:07.825Z,29.20
2023-04-09T05:41:07.812Z,29.00
2023-04-09T05:42:07.790Z,31.00
2023-04-09T05:43:07.821Z,29.50
2023-04-09T05:44:07.809Z,29.30
2023-04-09T05:45:07.770Z,28.40
2023-04-09T05:46:07.845Z,29.30
2023-04-09T05:47:07.776Z,29.30
2023-04-09T05:48:07.778Z,29.40
2023-04-09T05:49:07.721Z,29.40
2023-04-09T05:50:07.757Z,32.20
2023-04-09T05:51:07.730Z,30.50
2023-04-09T05:52:07.740Z,31.80
2023-04-09T05:53:07.693Z,30.60
2023-04-09T05:54:07.769Z,30.50
2023-04-09T05:55:07.693Z,30.80
2023-04-09T05:56:07.691Z,30.90
2023-04-09T05:57:07.689Z,34.40
2023-04-09T05:58:07.642Z,30.10
2023-04-09T05:59:07.678Z,29.50
2023-04-09T06:00:07.650Z,31.10
2023-04-09T06:01:07.621Z,31.80
2023-04-09T06:02:07.678Z,30.00
2023-04-09T06:03:07.716Z,32.60
2023-04-09T06:04:07.699Z,30.70
2023-04-09T06:05:07.598Z,31.30
2023-04-09T06:06:07.563Z,33.30
2023-04-09T06:07:07.616Z,33.40
2023-04-09T06:08:07.554Z,33.20
2023-04-09T06:09:07.581Z,32.00
2023-04-09T06:10:07.539Z,33.30
2023-04-09T06:11:07.534Z,31.40
2023-04-09T06:12:07.498Z,32.70
2023-04-09T06:13:07.535Z,31.90
2023-04-09T06:14:07.489Z,32.80
2023-04-09T06:15:07.507Z,32.60
2023-04-09T06:16:07.554Z,32.50
2023-04-09T06:17:07.478Z,35.20
2023-04-09T06:18:07.503Z,35.10
2023-04-09T06:19:07.462Z,35.20
2023-04-09T06:20:07.417Z,34.60
2023-04-09T06:21:07.445Z,35.30
2023-04-09T06:22:07.433Z,34.50
2023-04-09T06:23:07.410Z,34.50
2023-04-09T06:24:07.431Z,34.40
2023-04-09T06:25:07.404Z,34.90
2023-04-09T06:26:07.378Z,36.60
2023-04-09T06:27:07.378Z,34.20
2023-04-09T06:28:07.356Z,34.50
2023-04-09T06:29:07.355Z,35.30
2023-04-09T06:30:07.339Z,34.50
2023-04-09T06:31:07.357Z,35.80
2023-04-09T06:32:07.349Z,35.10
2023-04-09T06:33:07.340Z,34.90
2023-04-09T06:34:07.292Z,33.90
2023-04-09T06:35:08.755Z,35.20
2023-04-09T06:36:07.366Z,33.20
2023-04-09T06:37:07.320Z,35.70
2023-04-09T06:38:07.244Z,32.90
2023-04-09T06:39:07.266Z,33.80
2023-04-09T06:40:07.247Z,33.60
2023-04-09T06:41:07.264Z,32.90
2023-04-09T06:42:07.246Z,29.80
2023-04-09T06:43:07.202Z,32.90
2023-04-09T06:44:07.228Z,33.30
2023-04-09T06:45:07.183Z,33.30
2023-04-09T06:46:07.284Z,32.00
2023-04-09T06:47:07.195Z,32.30
2023-04-09T06:48:07.222Z,30.90
2023-04-09T06:49:07.175Z,29.70
2023-04-09T06:50:07.186Z,31.60
2023-04-09T06:51:07.153Z,31.80
2023-04-09T06:52:07.122Z,32.00
2023-04-09T06:53:07.105Z,32.30
2023-04-09T06:54:07.111Z,31.40
2023-04-09T06:55:07.092Z,31.70
2023-04-09T06:56:07.151Z,32.90
2023-04-09T06:57:07.159Z,31.10
2023-04-09T06:58:07.144Z,33.10
2023-04-09T06:59:07.039Z,32.40
2023-04-09T07:00:07.034Z,30.50
2023-04-09T07:01:07.040Z,30.90
2023-04-09T07:02:07.088Z,32.50
2023-04-09T07:03:07.101Z,32.60
2023-04-09T07:04:07.039Z,33.20
2023-04-09T07:05:07.013Z,34.30
2023-04-09T07:06:07.001Z,31.60
2023-04-09T07:07:07.041Z,30.00
2023-04-09T07:08:06.965Z,31.50
2023-04-09T07:09:06.964Z,31.10
2023-04-09T07:10:06.945Z,31.80
2023-04-09T07:11:06.941Z,29.60
2023-04-09T07:12:06.941Z,32.50
2023-04-09T07:13:06.925Z,31.10
2023-04-09T07:14:06.925Z,31.40
2023-04-09T07:15:06.937Z,32.80
2023-04-09T07:16:06.924Z,32.60
2023-04-09T07:17:06.908Z,33.00
2023-04-09T07:18:06.885Z,32.40
2023-04-09T07:19:06.858Z,31.40
2023-04-09T07:20:06.850Z,32.10
2023-04-09T07:21:06.865Z,32.70
2023-04-09T07:22:06.858Z,31.00
2023-04-09T07:23:06.803Z,32.90
2023-04-09T07:24:06.814Z,32.70
2023-04-09T07:25:06.817Z,32.30
2023-04-09T07:26:06.810Z,32.90
2023-04-09T07:27:06.782Z,32.70
2023-04-09T07:28:06.790Z,32.10
2023-04-09T07:29:06.761Z,32.70
2023-04-09T07:30:06.781Z,35.20
2023-04-09T07:31:06.757Z,33.50
2023-04-09T07:32:06.795Z,32.50
2023-04-09T07:33:06.793Z,32.10
2023-04-09T07:34:06.712Z,31.10
2023-04-09T07:35:06.731Z,34.60
2023-04-09T07:36:06.767Z,33.00
2023-04-09T07:37:06.745Z,33.00
2023-04-09T07:38:06.670Z,34.90
2023-04-09T07:39:06.685Z,33.60
2023-04-09T07:40:06.664Z,33.80
2023-04-09T07:41:06.702Z,32.50
2023-04-09T07:42:06.620Z,32.30
2023-04-09T07:43:06.616Z,32.40
2023-04-09T07:44:06.642Z,35.10
2023-04-09T07:45:06.632Z,35.80
2023-04-09T07:46:06.621Z,33.50
2023-04-09T07:47:06.638Z,32.90
2023-04-09T07:48:06.592Z,34.20
2023-04-09T07:49:06.585Z,34.00
2023-04-09T07:50:06.532Z,33.10
2023-04-09T07:51:06.555Z,30.20
2023-04-09T07:52:06.556Z,32.70
2023-04-09T07:53:06.528Z,31.70
2023-04-09T07:54:06.526Z,30.90
2023-04-09T07:55:06.525Z,30.90
2023-04-09T07:56:06.538Z,31.90
2023-04-09T07:57:06.513Z,33.10
2023-04-09T07:58:06.509Z,32.00
2023-04-09T07:59:06.609Z,30.50
2023-04-09T08:00:06.472Z,31.90
2023-04-09T08:01:06.446Z,30.80
2023-04-09T08:02:06.535Z,31.10
2023-04-09T08:03:06.652Z,31.80
2023-04-09T08:04:06.680Z,30.20
2023-04-09T08:05:06.464Z,32.20
2023-04-09T08:06:06.410Z,30.60
2023-04-09T08:07:06.435Z,32.00
2023-04-09T08:08:06.405Z,33.00
2023-04-09T08:09:06.381Z,33.30
2023-04-09T08:10:06.378Z,30.70
2023-04-09T08:11:06.386Z,30.90
2023-04-09T08:12:06.348Z,30.80
2023-04-09T08:13:06.342Z,30.40
2023-04-09T08:14:06.365Z,32.20
2023-04-09T08:15:06.300Z,29.90
2023-04-09T08:16:06.341Z,30.30
2023-04-09T08:17:06.291Z,29.80
2023-04-09T08:18:06.374Z,32.00
2023-04-09T08:19:06.283Z,29.70
2023-04-09T08:20:06.274Z,29.00
2023-04-09T08:21:06.290Z,29.20
2023-04-09T08:22:06.293Z,30.10
2023-04-09T08:23:06.270Z,30.50
2023-04-09T08:24:06.270Z,29.10
2023-04-09T08:25:06.238Z,30.50
2023-04-09T08:26:06.212Z,31.50
2023-04-09T08:27:06.203Z,29.50
2023-04-09T08:28:06.195Z,31.20
2023-04-09T08:29:38.093Z,32.50
2023-04-09T08:30:06.173Z,31.60
2023-04-09T08:31:06.164Z,31.30
2023-04-09T08:32:06.329Z,30.90
2023-04-09T08:33:06.254Z,31.30
2023-04-09T08:34:06.111Z,33.00
2023-04-09T08:35:06.106Z,32.10
2023-04-09T08:36:06.238Z,30.30
2023-04-09T08:37:06.106Z,31.40
2023-04-09T08:38:06.103Z,32.60
2023-04-09T08:39:06.172Z,32.50
2023-04-09T08:40:06.078Z,31.50
2023-04-09T08:41:06.067Z,28.70
2023-04-09T08:42:06.086Z,31.40
2023-04-09T08:43:06.075Z,31.80
2023-04-09T08:44:06.017Z,29.60
2023-04-09T08:45:06.013Z,31.30
2023-04-09T08:46:06.059Z,30.80
2023-04-09T08:47:06.023Z,31.20
2023-04-09T08:48:06.111Z,33.10
2023-04-09T08:49:05.976Z,31.60
2023-04-09T08:50:05.996Z,33.60
2023-04-09T08:51:05.974Z,32.30
2023-04-09T08:52:05.987Z,31.50
2023-04-09T08:53:05.962Z,33.40
2023-04-09T08:54:05.946Z,34.20
2023-04-09T08:55:05.955Z,32.20
2023-04-09T08:56:05.923Z,35.90
2023-04-09T08:57:05.901Z,34.20
2023-04-09T08:58:05.958Z,35.40
2023-04-09T08:59:05.924Z,33.80
2023-04-09T09:00:05.892Z,36.90
2023-04-09T09:01:05.978Z,38.50
2023-04-09T09:02:05.959Z,33.40
2023-04-09T09:03:06.002Z,36.00
2023-04-09T09:04:05.900Z,36.40
2023-04-09T09:05:05.856Z,33.50
2023-04-09T09:06:05.810Z,33.20
2023-04-09T09:07:05.800Z,33.20
2023-04-09T09:08:05.824Z,34.20
2023-04-09T09:09:05.815Z,31.90
2023-04-09T09:10:05.801Z,33.50
2023-04-09T09:11:05.807Z,32.40
2023-04-09T09:12:05.771Z,32.00
2023-04-09T09:13:05.749Z,34.70
2023-04-09T09:14:05.778Z,32.70
2023-04-09T09:15:05.719Z,32.30
2023-04-09T09:16:05.727Z,32.40
2023-04-09T09:17:05.776Z,33.50
2023-04-09T09:18:05.724Z,32.60
2023-04-09T09:19:05.705Z,31.60
2023-04-09T09:20:05.676Z,30.50
2023-04-09T09:21:05.693Z,32.60
2023-04-09T09:22:05.642Z,31.70
2023-04-09T09:23:05.660Z,32.80
2023-04-09T09:24:05.630Z,30.00
2023-04-09T09:25:05.647Z,30.00
2023-04-09T09:26:05.621Z,33.30
2023-04-09T09:27:05.611Z,30.50
2023-04-09T09:28:05.703Z,33.00
2023-04-09T09:29:05.651Z,30.00
2023-04-09T09:30:05.609Z,31.40
2023-04-09T09:31:05.595Z,28.50
2023-04-09T09:32:05.587Z,28.40
2023-04-09T09:33:05.533Z,26.90
2023-04-09T09:34:05.527Z,25.80
2023-04-09T09:35:05.573Z,26.60
2023-04-09T09:36:05.565Z,26.00
2023-04-09T09:37:06.826Z,26.80
2023-04-09T09:38:05.518Z,27.80
2023-04-09T09:39:05.498Z,25.80
2023-04-09T09:40:05.523Z,30.70
2023-04-09T09:41:05.527Z,31.40
2023-04-09T09:42:05.499Z,29.40
2023-04-09T09:43:05.466Z,29.40
2023-04-09T09:44:05.468Z,30.00
2023-04-09T09:45:05.424Z,30.00
2023-04-09T09:46:05.466Z,30.80
2023-04-09T09:47:05.497Z,31.90
2023-04-09T09:48:05.461Z,30.60
2023-04-09T09:49:05.414Z,30.90
2023-04-09T09:50:05.417Z,28.00
2023-04-09T09:51:05.372Z,29.50
2023-04-09T09:52:05.396Z,29.50
2023-04-09T09:53:05.405Z,33.00
2023-04-09T09:54:05.395Z,30.30
2023-04-09T09:55:05.358Z,30.50
2023-04-09T09:56:05.328Z,27.90
2023-04-09T09:57:05.341Z,30.00
2023-04-09T09:58:05.367Z,30.30
2023-04-09T09:59:05.289Z,28.00
2023-04-09T10:00:05.320Z,24.10
2023-04-09T10:01:05.330Z,26.70
2023-04-09T10:02:05.457Z,23.10
2023-04-09T10:03:05.504Z,23.60
2023-04-09T10:04:05.397Z,23.30
2023-04-09T10:05:05.236Z,24.20
2023-04-09T10:06:05.275Z,24.10
2023-04-09T10:07:05.289Z,23.90
2023-04-09T10:08:05.248Z,23.20
2023-04-09T10:09:05.221Z,22.00
2023-04-09T10:10:05.219Z,21.70
2023-04-09T10:11:05.213Z,22.60
2023-04-09T10:12:05.176Z,24.90
2023-04-09T10:13:05.254Z,26.10
2023-04-09T10:14:05.193Z,26.40
2023-04-09T10:15:05.187Z,23.70
2023-04-09T10:16:05.196Z,23.60
2023-04-09T10:17:05.140Z,23.20
2023-04-09T10:18:05.224Z,24.00
2023-04-09T10:19:05.127Z,24.40
2023-04-09T10:20:05.110Z,23.40
2023-04-09T10:21:05.166Z,22.90
2023-04-09T10:22:05.065Z,24.60
2023-04-09T10:23:05.110Z,22.60
2023-04-09T10:24:05.082Z,22.60
2023-04-09T10:25:05.040Z,22.30
2023-04-09T10:26:05.022Z,23.30
2023-04-09T10:27:05.059Z,20.80
2023-04-09T10:28:05.020Z,20.90
2023-04-09T10:29:05.028Z,22.10
2023-04-09T10:30:05.010Z,20.80
2023-04-09T10:31:05.034Z,19.70
2023-04-09T10:32:05.018Z,21.80
2023-04-09T10:33:04.971Z,21.90
2023-04-09T10:34:04.972Z,21.40
2023-04-09T10:35:04.986Z,21.30
2023-04-09T10:36:04.975Z,20.90
2023-04-09T10:37:04.925Z,21.00
2023-04-09T10:38:04.920Z,20.70
2023-04-09T10:39:04.916Z,20.50
2023-04-09T10:40:04.965Z,20.40
2023-04-09T10:41:04.956Z,20.90
2023-04-09T10:42:04.967Z,21.40
2023-04-09T10:43:04.894Z,21.80
2023-04-09T10:44:04.878Z,22.50
2023-04-09T10:45:04.881Z,21.10
2023-04-09T10:46:04.945Z,20.70
2023-04-09T10:47:04.872Z,21.90
2023-04-09T10:48:04.883Z,21.10
2023-04-09T10:49:04.809Z,21.90
2023-04-09T10:50:04.844Z,20.60
2023-04-09T10:51:04.791Z,19.80
2023-04-09T10:52:04.819Z,19.30
2023-04-09T10:53:04.794Z,18.90
2023-04-09T10:54:04.784Z,21.20
2023-04-09T10:55:04.782Z,20.70
2023-04-09T10:56:04.766Z,20.20
2023-04-09T10:57:05.733Z,21.10
2023-04-09T10:58:04.724Z,20.10
2023-04-09T10:59:04.717Z,20.20
2023-04-09T11:00:04.746Z,20.50
2023-04-09T11:01:04.673Z,20.50
2023-04-09T11:02:04.703Z,20.30
2023-04-09T11:03:04.872Z,20.90
2023-04-09T11:04:04.704Z,20.10
2023-04-09T11:05:04.665Z,20.50
2023-04-09T11:06:05.649Z,19.30
2023-04-09T11:07:04.617Z,18.70
2023-04-09T11:08:04.645Z,18.70
2023-04-09T11:09:04.639Z,19.20
2023-04-09T11:10:04.604Z,17.70
2023-04-09T11:11:04.625Z,17.20
2023-04-09T11:12:04.607Z,17.90
2023-04-09T11:13:04.593Z,16.60
2023-04-09T11:14:04.607Z,17.20
2023-04-09T11:15:04.575Z,17.00
2023-04-09T11:16:04.565Z,16.50
2023-04-09T11:17:04.537Z,18.00
2023-04-09T11:18:04.562Z,19.90
2023-04-09T11:19:04.523Z,20.10
2023-04-09T11:20:04.490Z,19.50
2023-04-09T11:21:04.538Z,20.00
2023-04-09T11:22:04.481Z,19.50
2023-04-09T11:23:04.546Z,19.50
2023-04-09T11:24:04.452Z,18.20
2023-04-09T11:25:04.452Z,16.70
2023-04-09T11:26:04.429Z,17.70
2023-04-09T11:27:04.517Z,15.70
2023-04-09T11:28:04.456Z,16.40
2023-04-09T11:29:04.426Z,16.20
2023-04-09T11:30:04.403Z,18.30
2023-04-09T11:31:04.437Z,17.50
2023-04-09T11:32:04.377Z,18.10
2023-04-09T11:33:04.422Z,17.90
2023-04-09T11:34:04.383Z,18.20
2023-04-09T11:35:04.366Z,17.60
2023-04-09T11:36:04.384Z,17.20
2023-04-09T11:37:04.331Z,13.50
2023-04-09T11:38:04.407Z,12.70
2023-04-09T11:39:04.328Z,13.50
2023-04-09T11:40:04.297Z,12.10
2023-04-09T11:41:04.274Z,11.30
2023-04-09T11:42:04.280Z,12.00
2023-04-09T11:43:04.250Z,11.90
2023-04-09T11:44:04.282Z,13.50
2023-04-09T11:45:04.293Z,13.00
2023-04-09T11:46:04.254Z,13.00
2023-04-09T11:47:04.387Z,14.00
2023-04-09T11:48:04.309Z,13.30
2023-04-09T11:49:04.239Z,12.10
2023-04-09T11:50:04.191Z,13.30
2023-04-09T11:51:04.197Z,12.90
2023-04-09T11:52:04.187Z,13.40
2023-04-09T11:53:04.200Z,13.10
2023-04-09T11:54:04.189Z,11.30
2023-04-09T11:55:04.167Z,11.10
2023-04-09T11:56:04.172Z,11.00
2023-04-09T11:57:04.157Z,10.90
2023-04-09T11:58:04.121Z,11.40
2023-04-09T11:59:04.141Z,12.00
2023-04-09T12:00:05.353Z,11.90
2023-04-09T12:01:04.122Z,11.70
2023-04-09T12:02:04.279Z,11.30
2023-04-09T12:03:04.663Z,10.70
2023-04-09T12:04:04.267Z,11.70
2023-04-09T12:05:04.101Z,10.70
2023-04-09T12:06:04.214Z,11.60
2023-04-09T12:07:04.071Z,13.10
2023-04-09T12:08:04.086Z,10.80
2023-04-09T12:09:04.020Z,11.60
2023-04-09T12:10:04.053Z,11.80
2023-04-09T12:11:04.034Z,11.30
2023-04-09T12:12:04.005Z,12.10
2023-04-09T12:13:03.992Z,11.30
2023-04-09T12:14:03.996Z,10.70
2023-04-09T12:15:03.969Z,13.20
2023-04-09T12:16:04.079Z,9.90
2023-04-09T12:17:04.023Z,16.90
2023-04-09T12:18:04.086Z,10.80
2023-04-09T12:19:03.955Z,10.60
2023-04-09T12:20:03.933Z,11.60
2023-04-09T12:21:03.887Z,9.80
2023-04-09T12:22:03.941Z,9.70
2023-04-09T12:23:03.932Z,10.80
2023-04-09T12:24:03.870Z,10.50
2023-04-09T12:25:03.918Z,11.00
2023-04-09T12:26:03.879Z,10.60
2023-04-09T12:27:03.863Z,11.00
2023-04-09T12:28:03.895Z,10.90
2023-04-09T12:29:03.840Z,10.60
2023-04-09T12:30:03.835Z,10.70
2023-04-09T12:31:03.861Z,10.80
2023-04-09T12:32:03.916Z,12.10
2023-04-09T12:33:03.849Z,9.40
2023-04-09T12:34:03.824Z,9.60
2023-04-09T12:35:03.770Z,9.40
2023-04-09T12:36:03.830Z,9.30
2023-04-09T12:37:03.756Z,9.90
2023-04-09T12:38:03.759Z,9.10
2023-04-09T12:39:03.762Z,9.30
2023-04-09T12:40:03.708Z,9.70
2023-04-09T12:41:03.727Z,9.30
2023-04-09T12:42:03.697Z,9.10
2023-04-09T12:43:03.686Z,9.60
2023-04-09T12:44:03.704Z,9.40
2023-04-09T12:45:03.675Z,9.90
2023-04-09T12:46:03.685Z,9.90
2023-04-09T12:47:03.648Z,10.30
2023-04-09T12:48:03.700Z,9.70
2023-04-09T12:49:03.632Z,9.80
2023-04-09T12:50:03.650Z,9.00
2023-04-09T12:51:03.669Z,10.00
2023-04-09T12:52:03.573Z,9.20
2023-04-09T12:53:03.632Z,9.20